sensor_id;sensor_type;location;lat;lon;timestamp;temperature;humidity
2539;DHT22;1280;49.760;9.664;2024-03-07T00:01:27;8.20;71.00
2539;DHT22;1280;49.760;9.664;2024-03-07T00:03:55;8.20;71.00
2539;DHT22;1280;49.760;9.664;2024-03-07T00:06:24;8.20;70.90
2539;DHT22;1280;49.760;9.664;2024-03-07T00:08:51;8.10;70.90
2539;DHT22;1280;49.760;9.664;2024-03-07T00:11:20;8.10;71.00
2539;DHT22;1280;49.760;9.664;2024-03-07T00:13:49;8.20;71.00
2539;DHT22;1280;49.760;9.664;2024-03-07T00:16:18;8.10;70.90
2539;DHT22;1280;49.760;9.664;2024-03-07T00:18:47;8.10;70.90
2539;DHT22;1280;49.760;9.664;2024-03-07T00:21:17;8.10;71.00
2539;DHT22;1280;49.760;9.664;2024-03-07T00:23:45;8.10;70.90
2539;DHT22;1280;49.760;9.664;2024-03-07T00:26:13;8.10;70.80
2539;DHT22;1280;49.760;9.664;2024-03-07T00:28:41;8.00;70.70
2539;DHT22;1280;49.760;9.664;2024-03-07T00:31:09;7.90;70.90
2539;DHT22;1280;49.760;9.664;2024-03-07T00:33:39;7.80;70.90
2539;DHT22;1280;49.760;9.664;2024-03-07T00:36:27;7.80;70.90
2539;DHT22;1280;49.760;9.664;2024-03-07T00:38:55;7.70;71.00
2539;DHT22;1280;49.760;9.664;2024-03-07T00:41:24;7.70;70.90
2539;DHT22;1280;49.760;9.664;2024-03-07T00:43:54;7.60;70.90
2539;DHT22;1280;49.760;9.664;2024-03-07T00:46:23;7.60;70.90
2539;DHT22;1280;49.760;9.664;2024-03-07T00:48:52;7.50;70.90
2539;DHT22;1280;49.760;9.664;2024-03-07T00:51:20;7.50;70.90
2539;DHT22;1280;49.760;9.664;2024-03-07T00:53:48;7.40;71.00
2539;DHT22;1280;49.760;9.664;2024-03-07T00:56:16;7.40;71.10
2539;DHT22;1280;49.760;9.664;2024-03-07T00:58:44;7.40;71.20
2539;DHT22;1280;49.760;9.664;2024-03-07T01:01:12;7.40;71.20
2539;DHT22;1280;49.760;9.664;2024-03-07T01:03:42;7.30;71.10
2539;DHT22;1280;49.760;9.664;2024-03-07T01:06:11;7.30;71.10
2539;DHT22;1280;49.760;9.664;2024-03-07T01:08:39;7.20;71.20
2539;DHT22;1280;49.760;9.664;2024-03-07T01:11:08;7.10;71.20
2539;DHT22;1280;49.760;9.664;2024-03-07T01:13:39;7.10;71.30
2539;DHT22;1280;49.760;9.664;2024-03-07T01:16:08;7.00;71.40
2539;DHT22;1280;49.760;9.664;2024-03-07T01:18:37;7.00;71.40
2539;DHT22;1280;49.760;9.664;2024-03-07T01:21:05;7.00;71.40
2539;DHT22;1280;49.760;9.664;2024-03-07T01:23:36;6.90;71.40
2539;DHT22;1280;49.760;9.664;2024-03-07T01:26:04;6.90;71.40
2539;DHT22;1280;49.760;9.664;2024-03-07T01:28:32;6.80;71.60
2539;DHT22;1280;49.760;9.664;2024-03-07T01:31:00;6.70;71.70
2539;DHT22;1280;49.760;9.664;2024-03-07T01:33:29;6.70;71.70
2539;DHT22;1280;49.760;9.664;2024-03-07T01:35:57;6.70;71.70
2539;DHT22;1280;49.760;9.664;2024-03-07T01:38:25;6.60;71.60
2539;DHT22;1280;49.760;9.664;2024-03-07T01:40:55;6.50;71.60
2539;DHT22;1280;49.760;9.664;2024-03-07T01:43:22;6.50;71.60
2539;DHT22;1280;49.760;9.664;2024-03-07T01:45:53;6.40;71.60
2539;DHT22;1280;49.760;9.664;2024-03-07T01:48:26;6.40;71.70
2539;DHT22;1280;49.760;9.664;2024-03-07T01:50:56;6.40;71.80
2539;DHT22;1280;49.760;9.664;2024-03-07T01:53:25;6.40;71.90
2539;DHT22;1280;49.760;9.664;2024-03-07T01:55:56;6.30;71.90
2539;DHT22;1280;49.760;9.664;2024-03-07T01:58:24;6.30;71.90
2539;DHT22;1280;49.760;9.664;2024-03-07T02:00:53;6.30;71.90
2539;DHT22;1280;49.760;9.664;2024-03-07T02:03:21;6.20;71.80
2539;DHT22;1280;49.760;9.664;2024-03-07T02:05:49;6.20;71.80
2539;DHT22;1280;49.760;9.664;2024-03-07T02:08:18;6.20;71.70
2539;DHT22;1280;49.760;9.664;2024-03-07T02:10:46;6.10;72.00
2539;DHT22;1280;49.760;9.664;2024-03-07T02:13:17;6.10;72.10
2539;DHT22;1280;49.760;9.664;2024-03-07T02:15:45;6.00;72.00
2539;DHT22;1280;49.760;9.664;2024-03-07T02:18:13;6.00;72.10
2539;DHT22;1280;49.760;9.664;2024-03-07T02:20:44;6.00;72.10
2539;DHT22;1280;49.760;9.664;2024-03-07T02:23:12;6.00;72.20
2539;DHT22;1280;49.760;9.664;2024-03-07T02:25:41;5.90;72.10
2539;DHT22;1280;49.760;9.664;2024-03-07T02:28:09;5.90;72.10
2539;DHT22;1280;49.760;9.664;2024-03-07T02:30:37;5.90;72.20
2539;DHT22;1280;49.760;9.664;2024-03-07T02:33:05;5.80;72.30
2539;DHT22;1280;49.760;9.664;2024-03-07T02:35:34;5.80;72.40
2539;DHT22;1280;49.760;9.664;2024-03-07T02:38:04;5.80;72.50
2539;DHT22;1280;49.760;9.664;2024-03-07T02:40:32;5.80;72.50
2539;DHT22;1280;49.760;9.664;2024-03-07T02:43:01;5.80;72.50
2539;DHT22;1280;49.760;9.664;2024-03-07T02:45:31;5.80;72.50
2539;DHT22;1280;49.760;9.664;2024-03-07T02:47:59;5.80;72.50
2539;DHT22;1280;49.760;9.664;2024-03-07T02:50:27;5.80;72.50
2539;DHT22;1280;49.760;9.664;2024-03-07T02:52:57;5.80;72.50
2539;DHT22;1280;49.760;9.664;2024-03-07T02:55:27;5.80;72.60
2539;DHT22;1280;49.760;9.664;2024-03-07T02:57:55;5.80;72.50
2539;DHT22;1280;49.760;9.664;2024-03-07T03:00:25;5.70;72.50
2539;DHT22;1280;49.760;9.664;2024-03-07T03:02:58;5.70;72.50
2539;DHT22;1280;49.760;9.664;2024-03-07T03:05:27;5.70;72.50
2539;DHT22;1280;49.760;9.664;2024-03-07T03:07:55;5.70;72.50
2539;DHT22;1280;49.760;9.664;2024-03-07T03:10:24;5.60;72.70
2539;DHT22;1280;49.760;9.664;2024-03-07T03:12:57;5.60;72.70
2539;DHT22;1280;49.760;9.664;2024-03-07T03:15:27;5.60;72.70
2539;DHT22;1280;49.760;9.664;2024-03-07T03:17:55;5.60;72.80
2539;DHT22;1280;49.760;9.664;2024-03-07T03:20:27;5.60;72.80
2539;DHT22;1280;49.760;9.664;2024-03-07T03:23:02;5.60;72.80
2539;DHT22;1280;49.760;9.664;2024-03-07T03:25:33;5.50;72.50
2539;DHT22;1280;49.760;9.664;2024-03-07T03:28:04;5.40;72.60
2539;DHT22;1280;49.760;9.664;2024-03-07T03:30:33;5.40;72.70
2539;DHT22;1280;49.760;9.664;2024-03-07T03:33:01;5.40;72.80
2539;DHT22;1280;49.760;9.664;2024-03-07T03:35:29;5.40;73.00
2539;DHT22;1280;49.760;9.664;2024-03-07T03:37:57;5.40;73.10
2539;DHT22;1280;49.760;9.664;2024-03-07T03:40:25;5.50;73.20
2539;DHT22;1280;49.760;9.664;2024-03-07T03:42:53;5.50;73.30
2539;DHT22;1280;49.760;9.664;2024-03-07T03:45:23;5.50;73.30
2539;DHT22;1280;49.760;9.664;2024-03-07T03:47:52;5.50;73.30
2539;DHT22;1280;49.760;9.664;2024-03-07T03:50:21;5.60;73.40
2539;DHT22;1280;49.760;9.664;2024-03-07T03:52:50;5.60;73.40
2539;DHT22;1280;49.760;9.664;2024-03-07T03:55:19;5.60;73.40
2539;DHT22;1280;49.760;9.664;2024-03-07T03:57:48;5.60;73.40
2539;DHT22;1280;49.760;9.664;2024-03-07T04:00:17;5.60;73.50
2539;DHT22;1280;49.760;9.664;2024-03-07T04:02:52;5.60;73.60
2539;DHT22;1280;49.760;9.664;2024-03-07T04:05:20;5.60;73.70
2539;DHT22;1280;49.760;9.664;2024-03-07T04:07:49;5.70;73.70
2539;DHT22;1280;49.760;9.664;2024-03-07T04:10:17;5.70;73.80
2539;DHT22;1280;49.760;9.664;2024-03-07T04:12:46;5.70;73.80
2539;DHT22;1280;49.760;9.664;2024-03-07T04:15:18;5.80;73.90
2539;DHT22;1280;49.760;9.664;2024-03-07T04:17:46;5.80;73.90
2539;DHT22;1280;49.760;9.664;2024-03-07T04:20:17;5.80;73.90
2539;DHT22;1280;49.760;9.664;2024-03-07T04:22:46;5.80;73.90
2539;DHT22;1280;49.760;9.664;2024-03-07T04:25:16;5.90;74.00
2539;DHT22;1280;49.760;9.664;2024-03-07T04:27:45;5.90;74.00
2539;DHT22;1280;49.760;9.664;2024-03-07T04:30:13;5.90;74.00
2539;DHT22;1280;49.760;9.664;2024-03-07T04:32:43;5.90;74.10
2539;DHT22;1280;49.760;9.664;2024-03-07T04:35:11;5.90;74.10
2539;DHT22;1280;49.760;9.664;2024-03-07T04:37:45;5.90;74.10
2539;DHT22;1280;49.760;9.664;2024-03-07T04:40:13;6.00;74.10
2539;DHT22;1280;49.760;9.664;2024-03-07T04:42:45;6.00;74.10
2539;DHT22;1280;49.760;9.664;2024-03-07T04:45:16;5.90;74.20
2539;DHT22;1280;49.760;9.664;2024-03-07T04:47:44;6.00;74.20
2539;DHT22;1280;49.760;9.664;2024-03-07T04:50:13;6.00;74.30
2539;DHT22;1280;49.760;9.664;2024-03-07T04:52:46;6.00;74.30
2539;DHT22;1280;49.760;9.664;2024-03-07T04:55:16;6.00;74.40
2539;DHT22;1280;49.760;9.664;2024-03-07T04:57:44;6.00;74.50
2539;DHT22;1280;49.760;9.664;2024-03-07T05:00:14;6.10;74.50
2539;DHT22;1280;49.760;9.664;2024-03-07T05:02:45;6.10;74.50
2539;DHT22;1280;49.760;9.664;2024-03-07T05:05:14;6.10;74.60
2539;DHT22;1280;49.760;9.664;2024-03-07T05:07:50;6.10;74.60
2539;DHT22;1280;49.760;9.664;2024-03-07T05:10:19;6.10;74.80
2539;DHT22;1280;49.760;9.664;2024-03-07T05:12:48;6.10;74.80
2539;DHT22;1280;49.760;9.664;2024-03-07T05:15:16;6.20;74.80
2539;DHT22;1280;49.760;9.664;2024-03-07T05:17:45;6.20;74.80
2539;DHT22;1280;49.760;9.664;2024-03-07T05:20:13;6.20;74.70
2539;DHT22;1280;49.760;9.664;2024-03-07T05:22:41;6.20;74.80
2539;DHT22;1280;49.760;9.664;2024-03-07T05:25:13;6.20;74.80
2539;DHT22;1280;49.760;9.664;2024-03-07T05:27:43;6.20;74.90
2539;DHT22;1280;49.760;9.664;2024-03-07T05:30:12;6.20;75.00
2539;DHT22;1280;49.760;9.664;2024-03-07T05:32:42;6.20;75.10
2539;DHT22;1280;49.760;9.664;2024-03-07T05:35:11;6.30;75.00
2539;DHT22;1280;49.760;9.664;2024-03-07T05:37:39;6.30;74.90
2539;DHT22;1280;49.760;9.664;2024-03-07T05:40:15;6.30;74.90
2539;DHT22;1280;49.760;9.664;2024-03-07T05:42:43;6.30;74.80
2539;DHT22;1280;49.760;9.664;2024-03-07T05:45:12;6.30;74.70
2539;DHT22;1280;49.760;9.664;2024-03-07T05:47:41;6.30;74.60
2539;DHT22;1280;49.760;9.664;2024-03-07T05:50:10;6.20;74.70
2539;DHT22;1280;49.760;9.664;2024-03-07T05:52:40;6.20;74.70
2539;DHT22;1280;49.760;9.664;2024-03-07T05:55:08;6.20;74.70
2539;DHT22;1280;49.760;9.664;2024-03-07T05:57:39;6.30;74.80
2539;DHT22;1280;49.760;9.664;2024-03-07T06:00:11;6.30;74.60
2539;DHT22;1280;49.760;9.664;2024-03-07T06:02:41;6.20;74.50
2539;DHT22;1280;49.760;9.664;2024-03-07T06:05:10;6.20;74.50
2539;DHT22;1280;49.760;9.664;2024-03-07T06:07:43;6.20;74.50
2539;DHT22;1280;49.760;9.664;2024-03-07T06:10:13;6.10;74.40
2539;DHT22;1280;49.760;9.664;2024-03-07T06:12:44;6.10;74.30
2539;DHT22;1280;49.760;9.664;2024-03-07T06:15:16;6.10;74.20
2539;DHT22;1280;49.760;9.664;2024-03-07T06:17:44;6.10;74.10
2539;DHT22;1280;49.760;9.664;2024-03-07T06:20:14;6.00;74.10
2539;DHT22;1280;49.760;9.664;2024-03-07T06:22:49;6.00;74.00
2539;DHT22;1280;49.760;9.664;2024-03-07T06:25:18;6.00;73.80
2539;DHT22;1280;49.760;9.664;2024-03-07T06:27:51;6.00;73.80
2539;DHT22;1280;49.760;9.664;2024-03-07T06:30:19;6.00;73.80
2539;DHT22;1280;49.760;9.664;2024-03-07T06:32:47;5.90;73.80
2539;DHT22;1280;49.760;9.664;2024-03-07T06:35:15;6.00;73.70
2539;DHT22;1280;49.760;9.664;2024-03-07T06:37:43;6.00;73.80
2539;DHT22;1280;49.760;9.664;2024-03-07T06:40:11;6.00;73.60
2539;DHT22;1280;49.760;9.664;2024-03-07T06:42:41;6.00;73.60
2539;DHT22;1280;49.760;9.664;2024-03-07T06:45:10;6.00;73.40
2539;DHT22;1280;49.760;9.664;2024-03-07T06:47:39;6.10;73.30
2539;DHT22;1280;49.760;9.664;2024-03-07T06:50:09;6.10;73.20
2539;DHT22;1280;49.760;9.664;2024-03-07T06:52:55;6.10;73.10
2539;DHT22;1280;49.760;9.664;2024-03-07T06:55:25;6.10;73.10
2539;DHT22;1280;49.760;9.664;2024-03-07T06:57:54;6.10;73.10
2539;DHT22;1280;49.760;9.664;2024-03-07T07:00:23;6.10;72.80
2539;DHT22;1280;49.760;9.664;2024-03-07T07:02:53;6.00;72.70
2539;DHT22;1280;49.760;9.664;2024-03-07T07:05:22;6.00;72.60
2539;DHT22;1280;49.760;9.664;2024-03-07T07:07:50;5.90;72.50
2539;DHT22;1280;49.760;9.664;2024-03-07T07:10:18;5.90;72.50
2539;DHT22;1280;49.760;9.664;2024-03-07T07:12:51;5.90;72.50
2539;DHT22;1280;49.760;9.664;2024-03-07T07:15:22;5.90;72.50
2539;DHT22;1280;49.760;9.664;2024-03-07T07:17:50;5.90;72.60
2539;DHT22;1280;49.760;9.664;2024-03-07T07:20:19;5.90;72.40
2539;DHT22;1280;49.760;9.664;2024-03-07T07:22:47;5.90;72.40
2539;DHT22;1280;49.760;9.664;2024-03-07T07:25:17;5.90;72.40
2539;DHT22;1280;49.760;9.664;2024-03-07T07:27:48;5.90;72.40
2539;DHT22;1280;49.760;9.664;2024-03-07T07:30:17;6.00;72.40
2539;DHT22;1280;49.760;9.664;2024-03-07T07:32:46;6.00;72.30
2539;DHT22;1280;49.760;9.664;2024-03-07T07:35:15;6.00;72.20
2539;DHT22;1280;49.760;9.664;2024-03-07T07:37:44;6.00;72.10
2539;DHT22;1280;49.760;9.664;2024-03-07T07:40:14;6.00;72.10
2539;DHT22;1280;49.760;9.664;2024-03-07T07:42:45;6.00;72.10
2539;DHT22;1280;49.760;9.664;2024-03-07T07:45:15;6.00;72.00
2539;DHT22;1280;49.760;9.664;2024-03-07T07:47:44;6.00;72.10
2539;DHT22;1280;49.760;9.664;2024-03-07T07:50:14;6.00;72.20
2539;DHT22;1280;49.760;9.664;2024-03-07T07:52:45;6.00;72.00
2539;DHT22;1280;49.760;9.664;2024-03-07T07:55:15;6.00;72.00
2539;DHT22;1280;49.760;9.664;2024-03-07T07:57:44;6.10;72.10
2539;DHT22;1280;49.760;9.664;2024-03-07T08:00:17;6.10;72.10
2539;DHT22;1280;49.760;9.664;2024-03-07T08:02:50;6.10;71.90
2539;DHT22;1280;49.760;9.664;2024-03-07T08:05:21;6.10;71.90
2539;DHT22;1280;49.760;9.664;2024-03-07T08:07:51;6.10;71.90
2539;DHT22;1280;49.760;9.664;2024-03-07T08:10:19;6.10;71.90
2539;DHT22;1280;49.760;9.664;2024-03-07T08:12:47;6.10;72.00
2539;DHT22;1280;49.760;9.664;2024-03-07T08:15:16;6.10;72.00
2539;DHT22;1280;49.760;9.664;2024-03-07T08:17:45;6.20;71.90
2539;DHT22;1280;49.760;9.664;2024-03-07T08:20:14;6.20;71.80
2539;DHT22;1280;49.760;9.664;2024-03-07T08:22:44;6.20;71.80
2539;DHT22;1280;49.760;9.664;2024-03-07T08:25:13;6.20;71.70
2539;DHT22;1280;49.760;9.664;2024-03-07T08:27:44;6.20;71.70
2539;DHT22;1280;49.760;9.664;2024-03-07T08:30:13;6.30;71.70
2539;DHT22;1280;49.760;9.664;2024-03-07T08:32:41;6.20;71.80
2539;DHT22;1280;49.760;9.664;2024-03-07T08:35:10;6.30;71.90
2539;DHT22;1280;49.760;9.664;2024-03-07T08:37:39;6.30;71.90
2539;DHT22;1280;49.760;9.664;2024-03-07T08:40:09;6.40;71.80
2539;DHT22;1280;49.760;9.664;2024-03-07T08:42:40;6.40;71.80
2539;DHT22;1280;49.760;9.664;2024-03-07T08:45:08;6.40;71.90
2539;DHT22;1280;49.760;9.664;2024-03-07T08:47:38;6.50;71.90
2539;DHT22;1280;49.760;9.664;2024-03-07T08:50:06;6.50;72.00
2539;DHT22;1280;49.760;9.664;2024-03-07T08:52:35;6.60;72.00
2539;DHT22;1280;49.760;9.664;2024-03-07T08:55:05;6.60;71.90
2539;DHT22;1280;49.760;9.664;2024-03-07T08:57:37;6.60;71.90
2539;DHT22;1280;49.760;9.664;2024-03-07T09:00:07;6.60;71.80
2539;DHT22;1280;49.760;9.664;2024-03-07T09:02:37;6.60;71.90
2539;DHT22;1280;49.760;9.664;2024-03-07T09:05:06;6.60;71.90
2539;DHT22;1280;49.760;9.664;2024-03-07T09:07:36;6.70;72.00
2539;DHT22;1280;49.760;9.664;2024-03-07T09:10:05;6.80;72.10
2539;DHT22;1280;49.760;9.664;2024-03-07T09:12:34;6.80;72.00
2539;DHT22;1280;49.760;9.664;2024-03-07T09:15:05;6.90;72.00
2539;DHT22;1280;49.760;9.664;2024-03-07T09:17:33;6.90;72.10
2539;DHT22;1280;49.760;9.664;2024-03-07T09:20:02;7.00;72.00
2539;DHT22;1280;49.760;9.664;2024-03-07T09:22:34;7.00;72.00
2539;DHT22;1280;49.760;9.664;2024-03-07T09:25:02;7.00;71.90
2539;DHT22;1280;49.760;9.664;2024-03-07T09:27:30;7.10;71.90
2539;DHT22;1280;49.760;9.664;2024-03-07T09:29:58;7.00;71.70
2539;DHT22;1280;49.760;9.664;2024-03-07T09:32:28;7.00;71.70
2539;DHT22;1280;49.760;9.664;2024-03-07T09:34:59;7.00;71.70
2539;DHT22;1280;49.760;9.664;2024-03-07T09:37:28;7.00;71.70
2539;DHT22;1280;49.760;9.664;2024-03-07T09:39:56;7.00;71.80
2539;DHT22;1280;49.760;9.664;2024-03-07T09:42:25;7.00;71.90
2539;DHT22;1280;49.760;9.664;2024-03-07T09:44:56;7.00;71.90
2539;DHT22;1280;49.760;9.664;2024-03-07T09:47:25;7.10;71.90
2539;DHT22;1280;49.760;9.664;2024-03-07T09:49:55;7.10;71.90
2539;DHT22;1280;49.760;9.664;2024-03-07T09:52:24;7.10;71.90
2539;DHT22;1280;49.760;9.664;2024-03-07T09:54:53;7.10;72.10
2539;DHT22;1280;49.760;9.664;2024-03-07T09:57:22;7.10;72.20
2539;DHT22;1280;49.760;9.664;2024-03-07T09:59:52;7.20;72.30
2539;DHT22;1280;49.760;9.664;2024-03-07T10:02:23;7.30;72.30
2539;DHT22;1280;49.760;9.664;2024-03-07T10:04:55;7.40;72.30
2539;DHT22;1280;49.760;9.664;2024-03-07T10:07:24;7.40;72.20
2539;DHT22;1280;49.760;9.664;2024-03-07T10:09:53;7.40;72.20
2539;DHT22;1280;49.760;9.664;2024-03-07T10:12:23;7.50;72.10
2539;DHT22;1280;49.760;9.664;2024-03-07T10:14:55;7.50;72.10
2539;DHT22;1280;49.760;9.664;2024-03-07T10:17:24;7.50;72.10
2539;DHT22;1280;49.760;9.664;2024-03-07T10:19:55;7.50;72.10
2539;DHT22;1280;49.760;9.664;2024-03-07T10:22:23;7.50;72.20
2539;DHT22;1280;49.760;9.664;2024-03-07T10:24:51;7.60;72.50
2539;DHT22;1280;49.760;9.664;2024-03-07T10:27:21;7.70;72.60
2539;DHT22;1280;49.760;9.664;2024-03-07T10:29:52;7.70;72.50
2539;DHT22;1280;49.760;9.664;2024-03-07T10:32:20;7.80;72.40
2539;DHT22;1280;49.760;9.664;2024-03-07T10:34:50;7.90;72.30
2539;DHT22;1280;49.760;9.664;2024-03-07T10:37:20;7.90;72.30
2539;DHT22;1280;49.760;9.664;2024-03-07T10:39:48;7.90;72.40
2539;DHT22;1280;49.760;9.664;2024-03-07T10:42:18;8.00;72.40
2539;DHT22;1280;49.760;9.664;2024-03-07T10:44:48;8.00;72.40
2539;DHT22;1280;49.760;9.664;2024-03-07T10:47:18;8.10;72.40
2539;DHT22;1280;49.760;9.664;2024-03-07T10:49:56;8.10;72.20
2539;DHT22;1280;49.760;9.664;2024-03-07T10:52:38;8.10;72.30
2539;DHT22;1280;49.760;9.664;2024-03-07T10:55:10;8.10;72.30
2539;DHT22;1280;49.760;9.664;2024-03-07T10:57:49;8.10;72.30
2539;DHT22;1280;49.760;9.664;2024-03-07T11:00:17;8.10;72.20
2539;DHT22;1280;49.760;9.664;2024-03-07T11:02:57;8.10;72.10
2539;DHT22;1280;49.760;9.664;2024-03-07T11:05:26;8.10;72.10
2539;DHT22;1280;49.760;9.664;2024-03-07T11:08:00;8.20;72.30
2539;DHT22;1280;49.760;9.664;2024-03-07T11:10:34;8.30;72.50
2539;DHT22;1280;49.760;9.664;2024-03-07T11:13:03;8.40;72.40
2539;DHT22;1280;49.760;9.664;2024-03-07T11:15:33;8.40;72.40
2539;DHT22;1280;49.760;9.664;2024-03-07T11:18:02;8.50;72.40
2539;DHT22;1280;49.760;9.664;2024-03-07T11:20:35;8.50;72.20
2539;DHT22;1280;49.760;9.664;2024-03-07T11:23:25;8.60;72.10
2539;DHT22;1280;49.760;9.664;2024-03-07T11:26:01;8.60;72.10
2539;DHT22;1280;49.760;9.664;2024-03-07T11:28:34;8.60;72.00
2539;DHT22;1280;49.760;9.664;2024-03-07T11:31:08;8.60;72.00
2539;DHT22;1280;49.760;9.664;2024-03-07T11:33:37;8.60;72.00
2539;DHT22;1280;49.760;9.664;2024-03-07T11:36:08;8.60;72.10
2539;DHT22;1280;49.760;9.664;2024-03-07T11:38:44;8.70;72.00
2539;DHT22;1280;49.760;9.664;2024-03-07T11:41:12;8.70;71.90
2539;DHT22;1280;49.760;9.664;2024-03-07T11:43:41;8.80;72.00
2539;DHT22;1280;49.760;9.664;2024-03-07T11:46:10;8.80;71.90
2539;DHT22;1280;49.760;9.664;2024-03-07T11:48:44;8.90;71.80
2539;DHT22;1280;49.760;9.664;2024-03-07T11:51:13;9.00;71.60
2539;DHT22;1280;49.760;9.664;2024-03-07T11:53:44;9.00;71.30
2539;DHT22;1280;49.760;9.664;2024-03-07T11:56:15;9.00;71.20
2539;DHT22;1280;49.760;9.664;2024-03-07T11:58:44;9.10;71.10
2539;DHT22;1280;49.760;9.664;2024-03-07T12:01:21;9.20;71.10
2539;DHT22;1280;49.760;9.664;2024-03-07T12:03:52;9.20;71.00
2539;DHT22;1280;49.760;9.664;2024-03-07T12:06:23;9.20;70.90
2539;DHT22;1280;49.760;9.664;2024-03-07T12:08:53;9.20;70.70
2539;DHT22;1280;49.760;9.664;2024-03-07T12:11:23;9.20;70.50
2539;DHT22;1280;49.760;9.664;2024-03-07T12:13:53;9.20;70.30
2539;DHT22;1280;49.760;9.664;2024-03-07T12:16:21;9.10;70.30
2539;DHT22;1280;49.760;9.664;2024-03-07T12:18:56;9.10;70.30
2539;DHT22;1280;49.760;9.664;2024-03-07T12:21:24;9.10;70.20
2539;DHT22;1280;49.760;9.664;2024-03-07T12:23:55;9.10;70.10
2539;DHT22;1280;49.760;9.664;2024-03-07T12:26:23;9.10;70.20
2539;DHT22;1280;49.760;9.664;2024-03-07T12:28:53;9.00;70.00
2539;DHT22;1280;49.760;9.664;2024-03-07T12:31:21;9.10;70.00
2539;DHT22;1280;49.760;9.664;2024-03-07T12:33:51;9.10;69.90
2539;DHT22;1280;49.760;9.664;2024-03-07T12:36:20;9.10;69.70
2539;DHT22;1280;49.760;9.664;2024-03-07T12:38:53;9.10;69.90
2539;DHT22;1280;49.760;9.664;2024-03-07T12:41:23;9.20;69.60
2539;DHT22;1280;49.760;9.664;2024-03-07T12:43:51;9.20;69.40
2539;DHT22;1280;49.760;9.664;2024-03-07T12:46:20;9.20;69.10
2539;DHT22;1280;49.760;9.664;2024-03-07T12:48:48;9.20;69.00
2539;DHT22;1280;49.760;9.664;2024-03-07T12:51:17;9.20;69.00
2539;DHT22;1280;49.760;9.664;2024-03-07T12:53:51;9.20;69.10
2539;DHT22;1280;49.760;9.664;2024-03-07T12:56:19;9.30;69.10
2539;DHT22;1280;49.760;9.664;2024-03-07T12:58:49;9.30;69.10
2539;DHT22;1280;49.760;9.664;2024-03-07T13:01:19;9.30;69.00
2539;DHT22;1280;49.760;9.664;2024-03-07T13:03:48;9.30;68.90
2539;DHT22;1280;49.760;9.664;2024-03-07T13:06:16;9.30;68.90
2539;DHT22;1280;49.760;9.664;2024-03-07T13:08:52;9.40;68.80
2539;DHT22;1280;49.760;9.664;2024-03-07T13:11:20;9.40;68.70
2539;DHT22;1280;49.760;9.664;2024-03-07T13:13:50;9.40;68.70
2539;DHT22;1280;49.760;9.664;2024-03-07T13:16:19;9.40;68.70
2539;DHT22;1280;49.760;9.664;2024-03-07T13:18:47;9.40;68.50
2539;DHT22;1280;49.760;9.664;2024-03-07T13:21:16;9.40;68.50
2539;DHT22;1280;49.760;9.664;2024-03-07T13:23:44;9.40;68.60
2539;DHT22;1280;49.760;9.664;2024-03-07T13:26:13;9.40;68.40
2539;DHT22;1280;49.760;9.664;2024-03-07T13:28:47;9.40;68.50
2539;DHT22;1280;49.760;9.664;2024-03-07T13:31:17;9.40;68.40
2539;DHT22;1280;49.760;9.664;2024-03-07T13:33:45;9.50;68.40
2539;DHT22;1280;49.760;9.664;2024-03-07T13:36:19;9.50;68.20
2539;DHT22;1280;49.760;9.664;2024-03-07T13:38:51;9.50;68.20
2539;DHT22;1280;49.760;9.664;2024-03-07T13:41:20;9.50;68.20
2539;DHT22;1280;49.760;9.664;2024-03-07T13:43:48;9.60;68.10
2539;DHT22;1280;49.760;9.664;2024-03-07T13:46:18;9.50;67.90
2539;DHT22;1280;49.760;9.664;2024-03-07T13:48:48;9.50;68.00
2539;DHT22;1280;49.760;9.664;2024-03-07T13:51:18;9.50;68.00
2539;DHT22;1280;49.760;9.664;2024-03-07T13:53:47;9.50;67.80
2539;DHT22;1280;49.760;9.664;2024-03-07T13:56:33;9.50;68.00
2539;DHT22;1280;49.760;9.664;2024-03-07T13:59:31;9.50;68.00
2539;DHT22;1280;49.760;9.664;2024-03-07T14:02:17;9.40;68.00
2539;DHT22;1280;49.760;9.664;2024-03-07T14:05:20;9.40;68.00
2539;DHT22;1280;49.760;9.664;2024-03-07T14:08:23;9.50;67.90
2539;DHT22;1280;49.760;9.664;2024-03-07T14:14:28;9.40;67.70
2539;DHT22;1280;49.760;9.664;2024-03-07T14:17:58;9.40;67.70
2539;DHT22;1280;49.760;9.664;2024-03-07T14:20:53;9.40;67.70
2539;DHT22;1280;49.760;9.664;2024-03-07T14:23:39;9.40;67.60
2539;DHT22;1280;49.760;9.664;2024-03-07T14:29:40;9.40;67.40
2539;DHT22;1280;49.760;9.664;2024-03-07T14:32:11;9.30;67.50
2539;DHT22;1280;49.760;9.664;2024-03-07T14:34:47;9.30;67.50
2539;DHT22;1280;49.760;9.664;2024-03-07T14:37:21;9.30;67.30
2539;DHT22;1280;49.760;9.664;2024-03-07T14:39:52;9.30;67.30
2539;DHT22;1280;49.760;9.664;2024-03-07T14:42:23;9.20;67.30
2539;DHT22;1280;49.760;9.664;2024-03-07T14:44:51;9.20;67.30
2539;DHT22;1280;49.760;9.664;2024-03-07T14:47:20;9.20;67.30
2539;DHT22;1280;49.760;9.664;2024-03-07T14:49:50;9.20;67.30
2539;DHT22;1280;49.760;9.664;2024-03-07T14:52:18;9.20;67.30
2539;DHT22;1280;49.760;9.664;2024-03-07T14:54:48;9.20;67.20
2539;DHT22;1280;49.760;9.664;2024-03-07T14:57:16;9.20;67.30
2539;DHT22;1280;49.760;9.664;2024-03-07T14:59:48;9.20;67.30
2539;DHT22;1280;49.760;9.664;2024-03-07T15:02:19;9.20;67.30
2539;DHT22;1280;49.760;9.664;2024-03-07T15:04:47;9.20;67.10
2539;DHT22;1280;49.760;9.664;2024-03-07T15:07:17;9.20;67.10
2539;DHT22;1280;49.760;9.664;2024-03-07T15:09:50;9.20;67.00
2539;DHT22;1280;49.760;9.664;2024-03-07T15:12:18;9.20;66.90
2539;DHT22;1280;49.760;9.664;2024-03-07T15:14:46;9.20;67.00
2539;DHT22;1280;49.760;9.664;2024-03-07T15:17:21;9.20;67.00
2539;DHT22;1280;49.760;9.664;2024-03-07T15:19:51;9.20;66.80
2539;DHT22;1280;49.760;9.664;2024-03-07T15:22:21;9.20;66.70
2539;DHT22;1280;49.760;9.664;2024-03-07T15:24:49;9.10;66.60
2539;DHT22;1280;49.760;9.664;2024-03-07T15:27:16;9.10;66.70
2539;DHT22;1280;49.760;9.664;2024-03-07T15:29:44;9.10;66.70
2539;DHT22;1280;49.760;9.664;2024-03-07T15:32:12;9.20;66.70
2539;DHT22;1280;49.760;9.664;2024-03-07T15:34:41;9.10;66.50
2539;DHT22;1280;49.760;9.664;2024-03-07T15:37:09;9.10;66.50
2539;DHT22;1280;49.760;9.664;2024-03-07T15:39:38;9.10;66.50
2539;DHT22;1280;49.760;9.664;2024-03-07T15:42:14;9.20;66.40
2539;DHT22;1280;49.760;9.664;2024-03-07T15:44:42;9.20;66.40
2539;DHT22;1280;49.760;9.664;2024-03-07T15:47:12;9.20;66.40
2539;DHT22;1280;49.760;9.664;2024-03-07T15:49:40;9.20;66.30
2539;DHT22;1280;49.760;9.664;2024-03-07T15:52:08;9.20;66.20
2539;DHT22;1280;49.760;9.664;2024-03-07T15:54:41;9.20;66.10
2539;DHT22;1280;49.760;9.664;2024-03-07T15:57:11;9.20;66.10
2539;DHT22;1280;49.760;9.664;2024-03-07T15:59:42;9.20;66.00
2539;DHT22;1280;49.760;9.664;2024-03-07T16:02:11;9.20;66.00
2539;DHT22;1280;49.760;9.664;2024-03-07T16:04:41;9.20;66.00
2539;DHT22;1280;49.760;9.664;2024-03-07T16:07:09;9.20;65.80
2539;DHT22;1280;49.760;9.664;2024-03-07T16:09:37;9.20;65.80
2539;DHT22;1280;49.760;9.664;2024-03-07T16:12:07;9.10;65.70
2539;DHT22;1280;49.760;9.664;2024-03-07T16:14:37;9.10;65.70
2539;DHT22;1280;49.760;9.664;2024-03-07T16:17:05;9.10;65.60
2539;DHT22;1280;49.760;9.664;2024-03-07T16:19:35;9.10;65.70
2539;DHT22;1280;49.760;9.664;2024-03-07T16:22:04;9.10;65.70
2539;DHT22;1280;49.760;9.664;2024-03-07T16:24:33;9.00;65.60
2539;DHT22;1280;49.760;9.664;2024-03-07T16:27:10;9.00;65.60
2539;DHT22;1280;49.760;9.664;2024-03-07T16:29:38;9.00;65.60
2539;DHT22;1280;49.760;9.664;2024-03-07T16:32:06;9.00;65.70
2539;DHT22;1280;49.760;9.664;2024-03-07T16:34:38;9.00;65.60
2539;DHT22;1280;49.760;9.664;2024-03-07T16:37:06;9.00;65.60
2539;DHT22;1280;49.760;9.664;2024-03-07T16:39:34;9.00;65.70
2539;DHT22;1280;49.760;9.664;2024-03-07T16:42:03;9.00;65.70
2539;DHT22;1280;49.760;9.664;2024-03-07T16:44:33;9.00;65.70